createdAt,value
2022-11-30T00:01:24.439Z,31.50
2022-11-30T00:03:56.887Z,31.80
2022-11-30T00:06:25.853Z,32.30
2022-11-30T00:08:58.026Z,31.90
2022-11-30T00:11:28.499Z,32.00
2022-11-30T00:13:56.736Z,39.40
2022-11-30T00:16:24.873Z,39.50
2022-11-30T00:18:53.482Z,34.90
2022-11-30T00:21:21.277Z,32.20
2022-11-30T00:23:49.488Z,30.60
2022-11-30T00:26:19.450Z,32.40
2022-11-30T00:28:47.900Z,30.50
2022-11-30T00:31:17.855Z,31.40
2022-11-30T00:33:46.141Z,30.20
2022-11-30T00:36:19.611Z,30.10
2022-11-30T00:38:49.191Z,30.40
2022-11-30T00:41:19.236Z,28.80
2022-11-30T00:43:47.696Z,29.10
2022-11-30T00:46:15.823Z,28.90
2022-11-30T00:48:44.008Z,27.10
2022-11-30T00:51:12.994Z,28.90
2022-11-30T00:53:41.984Z,33.00
2022-11-30T00:56:10.411Z,37.60
2022-11-30T00:58:38.261Z,34.00
2022-11-30T01:01:07.467Z,32.30
2022-11-30T01:03:36.706Z,33.90
2022-11-30T01:06:06.627Z,35.90
2022-11-30T01:08:35.135Z,34.20
2022-11-30T01:11:24.811Z,33.60
2022-11-30T01:13:53.594Z,35.50
2022-11-30T01:16:26.582Z,40.90
2022-11-30T01:18:54.854Z,38.20
2022-11-30T01:21:25.191Z,35.70
2022-11-30T01:23:54.270Z,34.70
2022-11-30T01:26:22.615Z,32.70
2022-11-30T01:28:52.309Z,33.90
2022-11-30T01:31:23.556Z,30.20
2022-11-30T01:33:53.559Z,33.00
2022-11-30T01:36:23.729Z,33.10
2022-11-30T01:38:55.613Z,34.10
2022-11-30T01:41:26.469Z,33.00
2022-11-30T01:44:06.050Z,32.40
2022-11-30T01:46:45.928Z,31.60
2022-11-30T01:49:23.330Z,32.60
2022-11-30T01:52:20.632Z,34.50
2022-11-30T01:55:06.028Z,32.20
2022-11-30T01:57:41.019Z,29.00
2022-11-30T02:00:12.733Z,32.00
2022-11-30T02:02:55.357Z,31.40
2022-11-30T02:05:24.698Z,31.50
2022-11-30T02:07:53.508Z,29.00
2022-11-30T02:10:31.636Z,30.30
2022-11-30T02:13:24.726Z,28.30
2022-11-30T02:16:06.365Z,27.20
2022-11-30T02:18:45.655Z,26.70
2022-11-30T02:21:26.100Z,27.40
2022-11-30T02:24:09.246Z,29.00
2022-11-30T02:27:03.617Z,27.60
2022-11-30T02:29:38.049Z,28.80
2022-11-30T02:32:35.507Z,27.60
2022-11-30T02:35:05.840Z,26.90
2022-11-30T02:37:35.406Z,28.50
2022-11-30T02:40:09.329Z,27.50
2022-11-30T02:42:37.206Z,26.00
2022-11-30T02:45:08.024Z,30.00
2022-11-30T02:47:49.174Z,29.60
2022-11-30T02:50:44.296Z,27.90
2022-11-30T02:53:13.343Z,26.50
2022-11-30T02:55:41.264Z,27.80
2022-11-30T02:58:09.157Z,27.80
2022-11-30T03:00:37.004Z,27.60
2022-11-30T03:03:04.912Z,25.90
2022-11-30T03:05:32.855Z,28.10
2022-11-30T03:08:00.718Z,30.00
2022-11-30T03:10:28.613Z,28.80
2022-11-30T03:13:00.438Z,30.70
2022-11-30T03:15:28.396Z,29.20
2022-11-30T03:17:56.280Z,29.70
2022-11-30T03:20:24.166Z,34.40
2022-11-30T03:22:52.032Z,31.60
2022-11-30T03:25:19.870Z,30.30
2022-11-30T03:27:47.734Z,28.60
2022-11-30T03:30:15.713Z,29.20
2022-11-30T03:32:43.640Z,31.80
2022-11-30T03:35:11.561Z,31.60
2022-11-30T03:37:39.412Z,33.90
2022-11-30T03:40:08.170Z,34.40
2022-11-30T03:42:36.002Z,38.30
2022-11-30T03:45:04.593Z,41.70
2022-11-30T03:47:32.470Z,41.10
2022-11-30T03:50:01.330Z,43.80
2022-11-30T03:52:29.270Z,48.20
2022-11-30T03:54:57.119Z,49.00
2022-11-30T03:57:24.994Z,46.70
2022-11-30T03:59:52.841Z,47.60
2022-11-30T04:02:20.774Z,50.50
2022-11-30T04:04:49.085Z,51.20
2022-11-30T04:07:17.383Z,47.50
2022-11-30T04:09:45.360Z,49.30
2022-11-30T04:12:13.191Z,50.50
2022-11-30T04:14:41.139Z,53.40
2022-11-30T04:17:09.012Z,53.40
2022-11-30T04:19:36.822Z,54.50
2022-11-30T04:22:04.666Z,53.00
2022-11-30T04:24:32.489Z,56.40
2022-11-30T04:27:00.355Z,55.70
2022-11-30T04:29:28.234Z,56.90
2022-11-30T04:31:56.118Z,60.90
2022-11-30T04:34:24.006Z,58.40
2022-11-30T04:36:54.879Z,61.70
2022-11-30T04:39:26.651Z,60.60
2022-11-30T04:41:54.579Z,58.40
2022-11-30T04:44:22.438Z,60.70
2022-11-30T04:46:50.439Z,58.30
2022-11-30T04:49:18.308Z,60.30
2022-11-30T04:51:46.246Z,60.80
2022-11-30T04:54:14.108Z,59.20
2022-11-30T04:56:41.954Z,61.90
2022-11-30T04:59:09.863Z,62.00
2022-11-30T05:01:37.780Z,63.30
2022-11-30T05:04:05.683Z,64.40
2022-11-30T05:06:33.673Z,63.00
2022-11-30T05:09:01.496Z,62.00
2022-11-30T05:11:29.312Z,61.90
2022-11-30T05:13:57.201Z,61.50
2022-11-30T05:16:25.051Z,59.70
2022-11-30T05:18:53.064Z,63.50
2022-11-30T05:21:20.905Z,56.40
2022-11-30T05:23:48.863Z,57.60
2022-11-30T05:26:16.741Z,55.80
2022-11-30T05:28:44.623Z,57.00
2022-11-30T05:31:12.524Z,56.80
2022-11-30T05:33:40.484Z,58.00
2022-11-30T05:36:10.844Z,57.20
2022-11-30T05:38:39.054Z,57.00
2022-11-30T05:41:06.967Z,55.80
2022-11-30T05:43:34.871Z,56.40
2022-11-30T05:46:04.412Z,56.60
2022-11-30T05:48:32.592Z,58.50
2022-11-30T05:51:18.009Z,55.50
2022-11-30T05:53:46.735Z,55.90
2022-11-30T05:56:20.876Z,57.80
2022-11-30T05:58:49.157Z,58.50
2022-11-30T06:01:19.103Z,61.10
2022-11-30T06:03:47.010Z,57.40
2022-11-30T06:06:15.102Z,56.70
2022-11-30T06:08:44.849Z,57.10
2022-11-30T06:11:13.537Z,57.40
2022-11-30T06:13:42.047Z,57.40
2022-11-30T06:16:10.198Z,65.10
2022-11-30T06:18:38.662Z,66.10
2022-11-30T06:21:10.990Z,61.10
2022-11-30T06:23:38.818Z,60.10
2022-11-30T06:26:10.221Z,59.20
2022-11-30T06:28:40.588Z,58.40
2022-11-30T06:31:11.460Z,59.00
2022-11-30T06:33:39.347Z,58.20
2022-11-30T06:36:07.697Z,58.10
2022-11-30T06:38:35.499Z,58.90
2022-11-30T06:41:09.316Z,64.70
2022-11-30T06:43:39.039Z,61.40
2022-11-30T06:46:07.878Z,62.90
2022-11-30T06:48:36.412Z,56.80
2022-11-30T06:51:11.251Z,60.80
2022-11-30T06:53:39.106Z,64.40
2022-11-30T06:56:10.721Z,65.70
2022-11-30T06:58:39.900Z,60.60
2022-11-30T07:01:10.399Z,59.30
2022-11-30T07:03:38.974Z,61.20
2022-11-30T07:06:09.187Z,63.60
2022-11-30T07:08:37.803Z,60.60
2022-11-30T07:11:07.710Z,60.10
2022-11-30T07:13:36.407Z,58.00
2022-11-30T07:16:06.733Z,57.60
2022-11-30T07:18:35.366Z,59.00
2022-11-30T07:21:05.311Z,57.80
2022-11-30T07:23:56.349Z,54.60
2022-11-30T07:26:25.884Z,53.70
2022-11-30T07:28:55.444Z,56.20
2022-11-30T07:31:27.960Z,57.40
2022-11-30T07:33:57.311Z,55.30
2022-11-30T07:36:27.007Z,53.00
2022-11-30T07:38:54.870Z,55.30
2022-11-30T07:41:22.683Z,54.70
2022-11-30T07:43:50.529Z,55.30
2022-11-30T07:46:19.051Z,50.90
2022-11-30T07:48:47.547Z,54.50
2022-11-30T07:51:21.051Z,60.20
2022-11-30T07:53:50.069Z,60.20
2022-11-30T07:56:20.262Z,58.70
2022-11-30T07:58:50.008Z,57.30
2022-11-30T08:01:21.851Z,60.10
2022-11-30T08:03:51.284Z,65.40
2022-11-30T08:06:24.243Z,61.30
2022-11-30T08:08:53.972Z,56.30
2022-11-30T08:11:24.778Z,54.50
2022-11-30T08:13:53.630Z,58.00
2022-11-30T08:16:24.416Z,54.60
2022-11-30T08:18:53.228Z,52.30
2022-11-30T08:21:21.681Z,53.00
2022-11-30T08:23:53.181Z,54.00
2022-11-30T08:26:23.549Z,57.30
2022-11-30T08:28:52.712Z,57.70
2022-11-30T08:31:29.415Z,65.30
2022-11-30T08:34:00.481Z,59.60
2022-11-30T08:36:29.670Z,62.10
2022-11-30T08:38:59.595Z,64.30
2022-11-30T08:41:27.565Z,65.30
2022-11-30T08:43:55.713Z,63.30
2022-11-30T08:49:22.067Z,66.10
2022-11-30T08:54:45.000Z,67.30
2022-11-30T08:57:17.560Z,67.90
2022-11-30T08:59:46.533Z,59.40
2022-11-30T09:02:19.685Z,55.60
2022-11-30T09:04:49.396Z,51.10
2022-11-30T09:07:17.976Z,51.00
2022-11-30T09:09:46.063Z,53.60
2022-11-30T09:12:13.969Z,56.50
2022-11-30T09:14:42.780Z,62.00
2022-11-30T09:17:10.761Z,64.30
2022-11-30T09:19:38.627Z,51.70
2022-11-30T09:22:06.515Z,54.10
2022-11-30T09:24:34.476Z,55.20
2022-11-30T09:27:02.282Z,53.50
2022-11-30T09:29:30.135Z,53.30
2022-11-30T09:31:58.037Z,48.30
2022-11-30T09:34:25.933Z,49.20
2022-11-30T09:36:53.923Z,55.40
2022-11-30T09:39:21.783Z,53.00
2022-11-30T09:42:13.964Z,48.80
2022-11-30T09:45:03.073Z,52.60
2022-11-30T09:48:08.604Z,50.30
2022-11-30T09:50:42.864Z,52.90
2022-11-30T09:53:33.650Z,49.50
2022-11-30T09:56:02.995Z,43.50
2022-11-30T09:58:44.924Z,41.10
2022-11-30T10:01:22.670Z,40.30
2022-11-30T10:03:50.806Z,38.50
2022-11-30T10:06:30.713Z,35.70
2022-11-30T10:09:17.410Z,38.30
2022-11-30T10:11:45.641Z,41.90
2022-11-30T10:14:48.728Z,42.60
2022-11-30T10:17:54.594Z,38.60
2022-11-30T10:20:34.240Z,41.90
2022-11-30T10:23:21.134Z,42.40
2022-11-30T10:26:30.109Z,42.90
2022-11-30T10:29:07.018Z,44.30
2022-11-30T10:31:37.690Z,44.00
2022-11-30T10:34:28.821Z,47.30
2022-11-30T10:37:05.820Z,43.40
2022-11-30T10:39:58.710Z,40.30
2022-11-30T10:42:40.438Z,36.70
2022-11-30T10:45:19.823Z,40.70
2022-11-30T10:48:03.585Z,38.10
2022-11-30T10:50:31.825Z,37.70
2022-11-30T10:53:00.816Z,38.70
2022-11-30T10:55:34.792Z,36.50
2022-11-30T10:58:10.728Z,39.30
2022-11-30T11:00:38.677Z,60.50
2022-11-30T11:03:24.558Z,44.60
2022-11-30T11:06:22.944Z,38.00
2022-11-30T11:08:51.366Z,37.50
2022-11-30T11:11:45.604Z,38.10
2022-11-30T11:14:24.725Z,33.90
2022-11-30T11:16:59.149Z,35.80
2022-11-30T11:19:34.682Z,39.40
2022-11-30T11:22:06.305Z,36.80
2022-11-30T11:24:35.499Z,38.90
2022-11-30T11:27:03.672Z,36.70
2022-11-30T11:29:34.924Z,42.00
2022-11-30T11:32:18.742Z,41.90
2022-11-30T11:34:51.006Z,44.30
2022-11-30T11:37:24.036Z,39.10
2022-11-30T11:40:05.706Z,43.20
2022-11-30T11:42:43.264Z,44.20
2022-11-30T11:45:22.721Z,41.00
2022-11-30T11:48:02.058Z,45.80
2022-11-30T11:53:47.329Z,43.20
2022-11-30T11:56:25.424Z,42.50
2022-11-30T11:59:06.032Z,45.90
2022-11-30T12:01:48.008Z,47.70
2022-11-30T12:04:36.176Z,40.50
2022-11-30T12:07:16.722Z,38.10
2022-11-30T12:10:49.842Z,37.40
2022-11-30T12:13:16.549Z,37.50
2022-11-30T12:16:10.977Z,38.10
2022-11-30T12:19:15.511Z,39.90
2022-11-30T12:22:14.710Z,47.90
2022-11-30T12:24:52.617Z,46.60
2022-11-30T12:27:25.201Z,44.60
2022-11-30T12:29:56.010Z,43.30
2022-11-30T12:32:50.967Z,43.50
2022-11-30T12:35:27.086Z,147.30
2022-11-30T12:38:13.376Z,129.60
2022-11-30T12:40:59.257Z,45.90
2022-11-30T12:43:48.778Z,39.80
2022-11-30T12:46:55.093Z,41.70
2022-11-30T12:49:33.499Z,40.50
2022-11-30T12:52:14.068Z,53.50
2022-11-30T12:54:57.946Z,51.20
2022-11-30T12:57:28.447Z,49.50
2022-11-30T13:00:19.576Z,47.40
2022-11-30T13:03:08.895Z,50.90
2022-11-30T13:05:42.879Z,42.20
2022-11-30T13:08:48.775Z,45.30
2022-11-30T13:11:21.734Z,45.50
2022-11-30T13:13:54.257Z,50.10
2022-11-30T13:16:24.724Z,46.40
2022-11-30T13:18:59.084Z,46.10
2022-11-30T13:21:34.975Z,41.60
2022-11-30T13:24:13.266Z,49.50
2022-11-30T13:27:08.745Z,48.20
2022-11-30T13:29:45.696Z,45.50
2022-11-30T13:32:41.075Z,45.30
2022-11-30T13:35:29.261Z,46.30
2022-11-30T13:41:08.959Z,39.20
2022-11-30T13:43:47.864Z,39.20
2022-11-30T13:46:20.895Z,52.10
2022-11-30T13:48:50.154Z,43.80
2022-11-30T13:51:40.060Z,52.10
2022-11-30T13:54:46.090Z,54.70
2022-11-30T13:57:24.789Z,46.70
2022-11-30T13:59:59.589Z,40.40
2022-11-30T14:02:33.666Z,38.50
2022-11-30T14:05:23.352Z,39.70
2022-11-30T14:08:00.642Z,42.40
2022-11-30T14:10:39.980Z,44.10
2022-11-30T14:13:10.770Z,44.90
2022-11-30T14:15:38.675Z,46.00
2022-11-30T14:18:09.384Z,47.60
2022-11-30T14:20:40.807Z,48.90
2022-11-30T14:23:14.453Z,43.90
2022-11-30T14:28:20.339Z,46.10
2022-11-30T14:30:49.117Z,49.70
2022-11-30T14:33:50.267Z,39.00
2022-11-30T14:36:19.352Z,43.60
2022-11-30T14:38:47.891Z,44.10
2022-11-30T14:41:29.866Z,43.20
2022-11-30T14:44:14.330Z,48.40
2022-11-30T14:46:42.234Z,42.10
2022-11-30T14:49:17.301Z,41.80
2022-11-30T14:51:52.567Z,45.20
2022-11-30T14:54:30.717Z,39.50
2022-11-30T14:57:07.544Z,39.20
2022-11-30T14:59:46.410Z,51.20
2022-11-30T15:02:30.462Z,48.70
2022-11-30T15:04:59.756Z,46.20
2022-11-30T15:07:29.799Z,46.90
2022-11-30T15:10:05.674Z,47.80
2022-11-30T15:12:35.275Z,46.50
2022-11-30T15:15:03.199Z,45.30
2022-11-30T15:17:31.717Z,44.80
2022-11-30T15:19:59.703Z,46.10
2022-11-30T15:22:35.044Z,46.30
2022-11-30T15:25:03.007Z,49.20
2022-11-30T15:27:31.013Z,48.50
2022-11-30T15:30:01.010Z,49.00
2022-11-30T15:32:29.339Z,44.40
2022-11-30T15:35:00.917Z,47.60
2022-11-30T15:37:35.404Z,68.90
2022-11-30T15:40:06.794Z,58.80
2022-11-30T15:42:40.335Z,55.00
2022-11-30T15:45:28.532Z,55.80
2022-11-30T15:47:58.751Z,53.20
2022-11-30T15:50:26.495Z,53.20
2022-11-30T15:52:57.043Z,51.30
2022-11-30T15:55:45.323Z,53.80
2022-11-30T15:58:46.519Z,61.30
2022-11-30T16:01:25.042Z,50.60
2022-11-30T16:03:56.080Z,51.50
2022-11-30T16:06:33.851Z,48.00
2022-11-30T16:09:17.334Z,55.20
2022-11-30T16:11:46.579Z,50.50
2022-11-30T16:14:16.836Z,50.90
2022-11-30T16:16:46.081Z,48.70
2022-11-30T16:19:13.981Z,49.10
2022-11-30T16:21:42.334Z,46.40
2022-11-30T16:24:14.599Z,54.30
2022-11-30T16:26:51.716Z,47.40
2022-11-30T16:29:20.586Z,42.60
2022-11-30T16:31:49.271Z,40.90
2022-11-30T16:34:17.247Z,40.70
2022-11-30T16:36:45.106Z,42.80
2022-11-30T16:39:13.378Z,46.60
2022-11-30T16:41:41.264Z,46.50
2022-11-30T16:44:13.859Z,42.00
2022-11-30T16:46:42.080Z,42.80
2022-11-30T16:49:09.996Z,43.70
2022-11-30T16:51:38.051Z,44.00
2022-11-30T16:54:06.025Z,44.20
2022-11-30T16:56:33.910Z,45.40
2022-11-30T16:59:01.796Z,47.10
2022-11-30T17:01:36.243Z,43.70
2022-11-30T17:04:12.258Z,48.70
2022-11-30T17:06:40.188Z,49.20
2022-11-30T17:09:15.854Z,47.10
2022-11-30T17:11:46.818Z,47.00
2022-11-30T17:14:14.729Z,52.70
2022-11-30T17:16:42.892Z,53.80
2022-11-30T17:19:11.215Z,52.60
2022-11-30T17:21:39.884Z,53.30
2022-11-30T17:24:07.975Z,54.30
2022-11-30T17:26:35.972Z,49.20
2022-11-30T17:29:04.433Z,53.90
2022-11-30T17:31:32.601Z,52.10
2022-11-30T17:34:00.587Z,49.30
2022-11-30T17:36:29.441Z,45.40
2022-11-30T17:38:57.693Z,46.80
2022-11-30T17:41:25.581Z,45.10
2022-11-30T17:43:53.410Z,47.10
2022-11-30T17:46:22.482Z,50.00
2022-11-30T17:48:50.750Z,54.80
2022-11-30T17:51:18.717Z,47.80
2022-11-30T17:53:46.614Z,45.90
2022-11-30T17:56:16.501Z,47.20
2022-11-30T17:58:45.363Z,46.10
2022-11-30T18:01:19.140Z,45.80
2022-11-30T18:03:47.654Z,41.80
2022-11-30T18:06:16.218Z,42.00
2022-11-30T18:08:45.088Z,42.20
2022-11-30T18:11:14.172Z,40.40
2022-11-30T18:13:42.203Z,42.20
2022-11-30T18:16:13.475Z,42.20
2022-11-30T18:18:47.377Z,43.50
2022-11-30T18:21:20.039Z,43.50
2022-11-30T18:23:49.218Z,43.60
2022-11-30T18:26:20.277Z,45.60
2022-11-30T18:28:58.370Z,46.00
2022-11-30T18:31:27.968Z,44.20
2022-11-30T18:33:58.183Z,43.50
2022-11-30T18:36:26.956Z,44.90
2022-11-30T18:38:55.122Z,46.90
2022-11-30T18:41:26.167Z,48.20
2022-11-30T18:43:54.744Z,50.50
2022-11-30T18:46:22.765Z,50.80
2022-11-30T18:48:51.866Z,45.80
2022-11-30T18:51:27.429Z,41.90
2022-11-30T18:54:00.894Z,42.40
2022-11-30T18:56:31.756Z,40.40
2022-11-30T18:59:02.335Z,39.20
2022-11-30T19:01:31.307Z,40.40
2022-11-30T19:04:02.123Z,43.20
2022-11-30T19:06:32.573Z,42.00
2022-11-30T19:09:08.502Z,41.40
2022-11-30T19:11:37.844Z,45.30
2022-11-30T19:14:06.355Z,45.50
2022-11-30T19:16:35.074Z,45.70
2022-11-30T19:19:06.308Z,46.00
2022-11-30T19:21:34.754Z,48.00
2022-11-30T19:24:03.056Z,46.40
2022-11-30T19:26:30.965Z,49.10
2022-11-30T19:28:59.184Z,47.30
2022-11-30T19:31:27.649Z,48.50
2022-11-30T19:33:56.540Z,47.30
2022-11-30T19:36:27.511Z,46.70
2022-11-30T19:38:58.229Z,48.50
2022-11-30T19:41:27.363Z,48.70
2022-11-30T19:44:02.748Z,52.30
2022-11-30T19:46:33.317Z,47.80
2022-11-30T19:49:01.824Z,49.80
2022-11-30T19:51:31.348Z,50.50
2022-11-30T19:53:59.389Z,49.20
2022-11-30T19:56:29.610Z,49.10
2022-11-30T19:59:04.023Z,47.20
2022-11-30T20:01:34.257Z,46.30
2022-11-30T20:04:03.789Z,47.20
2022-11-30T20:06:37.108Z,49.60
2022-11-30T20:09:07.245Z,52.90
2022-11-30T20:11:35.594Z,50.10
2022-11-30T20:14:03.799Z,54.60
2022-11-30T20:16:31.989Z,54.60
2022-11-30T20:19:01.863Z,52.40
2022-11-30T20:21:33.310Z,50.50
2022-11-30T20:24:05.468Z,50.50
2022-11-30T20:26:36.787Z,49.50
2022-11-30T20:29:07.145Z,49.50
2022-11-30T20:31:36.875Z,49.10
2022-11-30T20:34:05.397Z,49.50
2022-11-30T20:36:33.784Z,48.70
2022-11-30T20:39:03.385Z,49.20
2022-11-30T20:41:31.247Z,53.50
2022-11-30T20:43:59.533Z,55.50
2022-11-30T20:46:35.690Z,51.50
2022-11-30T20:49:11.777Z,52.20
2022-11-30T20:51:39.647Z,55.10
2022-11-30T20:54:07.838Z,55.00
2022-11-30T20:56:37.847Z,55.30
2022-11-30T20:59:09.017Z,53.60
2022-11-30T21:01:36.901Z,53.80
2022-11-30T21:04:04.859Z,57.30
2022-11-30T21:06:32.943Z,60.20
2022-11-30T21:09:01.214Z,57.10
2022-11-30T21:11:30.186Z,57.20
2022-11-30T21:13:58.188Z,55.10
2022-11-30T21:16:29.485Z,53.70
2022-11-30T21:18:59.544Z,50.00
2022-11-30T21:21:33.742Z,51.10
2022-11-30T21:24:05.332Z,50.60
2022-11-30T21:26:36.570Z,48.50
2022-11-30T21:29:11.444Z,51.10
2022-11-30T21:31:39.569Z,52.10
2022-11-30T21:34:07.793Z,53.40
2022-11-30T21:36:35.932Z,58.00
2022-11-30T21:39:07.088Z,48.30
2022-11-30T21:41:37.350Z,47.50
2022-11-30T21:44:07.222Z,47.00
2022-11-30T21:46:35.302Z,48.80
2022-11-30T21:49:03.572Z,46.20
2022-11-30T21:51:32.727Z,44.30
2022-11-30T21:54:04.173Z,44.20
2022-11-30T21:56:37.333Z,45.80
2022-11-30T21:59:07.210Z,49.80
2022-11-30T22:01:38.284Z,49.70
2022-11-30T22:04:08.611Z,48.70
2022-11-30T22:06:38.397Z,51.80
2022-11-30T22:09:12.950Z,50.50
2022-11-30T22:11:42.571Z,52.20
2022-11-30T22:14:12.829Z,51.20
2022-11-30T22:16:40.741Z,46.90
2022-11-30T22:19:08.743Z,49.30
2022-11-30T22:21:36.798Z,46.90
2022-11-30T22:24:07.500Z,50.30
2022-11-30T22:26:38.197Z,51.40
2022-11-30T22:29:08.556Z,50.80
2022-11-30T22:31:40.294Z,50.50
2022-11-30T22:34:08.591Z,45.80
2022-11-30T22:36:38.779Z,48.60
2022-11-30T22:39:13.081Z,50.60
2022-11-30T22:41:42.495Z,54.70
2022-11-30T22:44:13.157Z,53.90
2022-11-30T22:46:41.658Z,54.30
2022-11-30T22:49:20.227Z,53.60
2022-11-30T22:51:49.934Z,52.10
2022-11-30T22:54:18.749Z,54.90
2022-11-30T22:56:47.016Z,53.80
2022-11-30T22:59:15.931Z,53.70
2022-11-30T23:01:46.837Z,54.40
2022-11-30T23:04:17.197Z,55.00
2022-11-30T23:06:47.355Z,57.50
2022-11-30T23:09:18.606Z,55.40
2022-11-30T23:11:47.442Z,54.10
2022-11-30T23:14:16.572Z,49.40
2022-11-30T23:16:45.813Z,51.60
2022-11-30T23:19:14.468Z,50.10
2022-11-30T23:21:44.977Z,46.80
2022-11-30T23:24:15.932Z,46.80
2022-11-30T23:26:44.581Z,46.20
2022-11-30T23:29:14.747Z,46.60
2022-11-30T23:31:45.266Z,46.10
2022-11-30T23:34:16.964Z,47.60
2022-11-30T23:36:45.301Z,51.00
2022-11-30T23:39:16.094Z,53.50
2022-11-30T23:41:44.568Z,51.50
2022-11-30T23:44:12.693Z,51.10
2022-11-30T23:46:41.356Z,49.50
2022-11-30T23:49:09.552Z,51.70
2022-11-30T23:51:37.492Z,53.30
2022-11-30T23:54:05.514Z,52.40
2022-11-30T23:56:33.441Z,54.60
2022-11-30T23:59:01.295Z,55.70
